Time;durP1;ratioP1;P1;durP2;ratioP2;P2;SDS_P1;SDS_P2;PMS_P1;PMS_P2;Temp;Humidity;BMP_temperature;BMP_pressure;BME280_temperature;BME280_humidity;BME280_pressure;Samples;Min_cycle;Max_cycle;Signal;HPM_P1;HPM_P2
2021/12/23 00:00:14;;;;;;;0;0;;;;;;;0;0;0;;;;
2021/12/23 00:01:15;;;;;;;0;0;;;;;;;0;0;0;;;;
2021/12/23 00:02:16;;;;;;;0;0;;;;;;;0;0;0;;;;
2021/12/23 00:03:16;;;;;;;0;0;;;;;;;0;0;0;;;;
2021/12/23 00:04:17;;;;;;;0;0;;;;;;;0;0;0;;;;
2021/12/23 00:05:17;;;;;;;0;0;;;;;;;0;0;0;;;;
2021/12/23 00:06:18;;;;;;;0;0;;;;;;;0;0;0;;;;
2021/12/23 00:07:18;;;;;;;0;0;;;;;;;0;0;0;;;;
2021/12/23 00:08:19;;;;;;;0;0;;;;;;;0;0;0;;;;
2021/12/23 00:09:21;;;;;;;0;0;;;;;;;0;0;0;;;;
2021/12/23 00:10:22;;;;;;;0;0;;;;;;;0;0;0;;;;
2021/12/23 00:11:22;;;;;;;0;0;;;;;;;0;0;0;;;;
2021/12/23 00:12:23;;;;;;;0;0;;;;;;;0;0;0;;;;
2021/12/23 00:13:24;;;;;;;0;0;;;;;;;0;0;0;;;;
2021/12/23 00:14:24;;;;;;;0;0;;;;;;;0;0;0;;;;
2021/12/23 00:15:30;;;;;;;0;0;;;;;;;0;0;0;;;;
2021/12/23 00:16:42;;;;;;;0;0;;;;;;;0;0;0;;;;
2021/12/23 00:18:03;;;;;;;0;0;;;;;;;0;0;0;;;;
2021/12/23 00:19:16;;;;;;;0;0;;;;;;;0;0;0;;;;
2021/12/23 00:25:29;;;;;;;0;0;;;;;;;0;0;0;;;;
2021/12/23 00:26:30;;;;;;;0;0;;;;;;;0;0;0;;;;
2021/12/23 00:27:31;;;;;;;0;0;;;;;;;0;0;0;;;;
2021/12/23 00:28:31;;;;;;;0;0;;;;;;;0;0;0;;;;
2021/12/23 00:29:32;;;;;;;0;0;;;;;;;0;0;0;;;;
2021/12/23 00:30:33;;;;;;;0;0;;;;;;;0;0;0;;;;
2021/12/23 00:31:34;;;;;;;0;0;;;;;;;0;0;0;;;;
2021/12/23 00:32:34;;;;;;;0;0;;;;;;;0;0;0;;;;
2021/12/23 00:33:36;;;;;;;0;0;;;;;;;0;0;0;;;;
2021/12/23 00:34:37;;;;;;;0;0;;;;;;;0;0;0;;;;
2021/12/23 00:35:38;;;;;;;0;0;;;;;;;0;0;0;;;;
2021/12/23 00:36:41;;;;;;;0;0;;;;;;;0;0;0;;;;
2021/12/23 00:37:45;;;;;;;0;0;;;;;;;0;0;0;;;;
2021/12/23 00:38:50;;;;;;;0;0;;;;;;;0;0;0;;;;
2021/12/23 00:39:52;;;;;;;0;0;;;;;;;0;0;0;;;;
2021/12/23 00:40:52;;;;;;;0;0;;;;;;;0;0;0;;;;
2021/12/23 00:41:55;;;;;;;0;0;;;;;;;0;0;0;;;;
2021/12/23 00:42:55;;;;;;;0;0;;;;;;;0;0;0;;;;
2021/12/23 00:43:56;;;;;;;0;0;;;;;;;0;0;0;;;;
2021/12/23 00:44:57;;;;;;;0;0;;;;;;;0;0;0;;;;
2021/12/23 00:45:58;;;;;;;0;0;;;;;;;0;0;0;;;;
2021/12/23 00:46:59;;;;;;;0;0;;;;;;;0;0;0;;;;
2021/12/23 00:47:59;;;;;;;0;0;;;;;;;0;0;0;;;;
2021/12/23 00:49:00;;;;;;;0;0;;;;;;;0;0;0;;;;
2021/12/23 00:50:00;;;;;;;0;0;;;;;;;0;0;0;;;;
2021/12/23 00:51:02;;;;;;;0;0;;;;;;;0;0;0;;;;
2021/12/23 00:52:05;;;;;;;0;0;;;;;;;0;0;0;;;;
2021/12/23 00:53:09;;;;;;;0;0;;;;;;;0;0;0;;;;
2021/12/23 00:54:09;;;;;;;0;0;;;;;;;0;0;0;;;;
2021/12/23 00:55:10;;;;;;;0;0;;;;;;;0;0;0;;;;
2021/12/23 00:56:12;;;;;;;0;0;;;;;;;0;0;0;;;;
2021/12/23 00:57:12;;;;;;;0;0;;;;;;;0;0;0;;;;
2021/12/23 00:58:13;;;;;;;0;0;;;;;;;0;0;0;;;;
2021/12/23 00:59:14;;;;;;;0;0;;;;;;;0;0;0;;;;
2021/12/23 01:00:15;;;;;;;0;0;;;;;;;0;0;0;;;;
2021/12/23 01:01:17;;;;;;;0;0;;;;;;;0;0;0;;;;
2021/12/23 01:02:18;;;;;;;0;0;;;;;;;0;0;0;;;;
2021/12/23 01:03:18;;;;;;;0;0;;;;;;;0;0;0;;;;
2021/12/23 01:04:19;;;;;;;0;0;;;;;;;0;0;0;;;;
2021/12/23 01:05:19;;;;;;;0;0;;;;;;;0;0;0;;;;
2021/12/23 01:06:22;;;;;;;0;0;;;;;;;0;0;0;;;;
2021/12/23 01:07:22;;;;;;;0;0;;;;;;;0;0;0;;;;
2021/12/23 01:08:23;;;;;;;0;0;;;;;;;0;0;0;;;;
2021/12/23 01:09:24;;;;;;;0;0;;;;;;;0;0;0;;;;
2021/12/23 01:10:25;;;;;;;0;0;;;;;;;0;0;0;;;;
2021/12/23 01:11:27;;;;;;;0;0;;;;;;;0;0;0;;;;
2021/12/23 01:12:34;;;;;;;0;0;;;;;;;0;0;0;;;;
2021/12/23 01:13:37;;;;;;;0;0;;;;;;;0;0;0;;;;
2021/12/23 01:14:42;;;;;;;0;0;;;;;;;0;0;0;;;;
2021/12/23 01:16:00;;;;;;;0;0;;;;;;;0;0;0;;;;
2021/12/23 01:17:22;;;;;;;0;0;;;;;;;0;0;0;;;;
2021/12/23 01:18:24;;;;;;;0;0;;;;;;;0;0;0;;;;
2021/12/23 01:19:26;;;;;;;0;0;;;;;;;0;0;0;;;;
2021/12/23 01:20:29;;;;;;;0;0;;;;;;;0;0;0;;;;
2021/12/23 01:21:32;;;;;;;0;0;;;;;;;0;0;0;;;;
2021/12/23 01:22:32;;;;;;;0;0;;;;;;;0;0;0;;;;
2021/12/23 01:23:38;;;;;;;0;0;;;;;;;0;0;0;;;;
2021/12/23 01:24:39;;;;;;;0;0;;;;;;;0;0;0;;;;
2021/12/23 01:25:39;;;;;;;0;0;;;;;;;0;0;0;;;;
2021/12/23 01:26:41;;;;;;;0;0;;;;;;;0;0;0;;;;
2021/12/23 01:27:42;;;;;;;0;0;;;;;;;0;0;0;;;;
2021/12/23 01:28:42;;;;;;;0;0;;;;;;;0;0;0;;;;
2021/12/23 01:29:43;;;;;;;0;0;;;;;;;0;0;0;;;;
2021/12/23 01:30:44;;;;;;;0;0;;;;;;;0;0;0;;;;
2021/12/23 01:31:45;;;;;;;0;0;;;;;;;0;0;0;;;;
2021/12/23 01:32:45;;;;;;;0;0;;;;;;;0;0;0;;;;
2021/12/23 01:33:48;;;;;;;0;0;;;;;;;0;0;0;;;;
2021/12/23 01:34:49;;;;;;;0;0;;;;;;;0;0;0;;;;
2021/12/23 01:35:50;;;;;;;0;0;;;;;;;0;0;0;;;;
2021/12/23 01:36:50;;;;;;;0;0;;;;;;;0;0;0;;;;
2021/12/23 01:37:51;;;;;;;0;0;;;;;;;0;0;0;;;;
2021/12/23 01:38:52;;;;;;;0;0;;;;;;;0;0;0;;;;
2021/12/23 01:39:53;;;;;;;0;0;;;;;;;0;0;0;;;;
2021/12/23 01:40:54;;;;;;;0;0;;;;;;;0;0;0;;;;
2021/12/23 01:41:54;;;;;;;0;0;;;;;;;0;0;0;;;;
2021/12/23 01:42:55;;;;;;;0;0;;;;;;;0;0;0;;;;
2021/12/23 01:43:56;;;;;;;0;0;;;;;;;0;0;0;;;;
2021/12/23 01:44:57;;;;;;;0;0;;;;;;;0;0;0;;;;
2021/12/23 01:45:57;;;;;;;0;0;;;;;;;0;0;0;;;;
2021/12/23 01:46:58;;;;;;;0;0;;;;;;;0;0;0;;;;
2021/12/23 01:47:59;;;;;;;0;0;;;;;;;0;0;0;;;;
2021/12/23 01:49:00;;;;;;;0;0;;;;;;;0;0;0;;;;
2021/12/23 01:50:00;;;;;;;0;0;;;;;;;0;0;0;;;;
2021/12/23 01:51:01;;;;;;;0;0;;;;;;;0;0;0;;;;
2021/12/23 01:52:02;;;;;;;0;0;;;;;;;0;0;0;;;;
2021/12/23 01:53:04;;;;;;;0;0;;;;;;;0;0;0;;;;
2021/12/23 01:54:05;;;;;;;0;0;;;;;;;0;0;0;;;;
2021/12/23 01:55:05;;;;;;;0;0;;;;;;;0;0;0;;;;
2021/12/23 01:56:08;;;;;;;0;0;;;;;;;0;0;0;;;;
2021/12/23 01:57:09;;;;;;;0;0;;;;;;;0;0;0;;;;
2021/12/23 01:58:10;;;;;;;0;0;;;;;;;0;0;0;;;;
2021/12/23 01:59:12;;;;;;;0;0;;;;;;;0;0;0;;;;
2021/12/23 02:00:12;;;;;;;0;0;;;;;;;0;0;0;;;;
2021/12/23 02:01:16;;;;;;;0;0;;;;;;;0;0;0;;;;
2021/12/23 02:02:17;;;;;;;0;0;;;;;;;0;0;0;;;;
2021/12/23 02:03:18;;;;;;;0;0;;;;;;;0;0;0;;;;
2021/12/23 02:04:19;;;;;;;0;0;;;;;;;0;0;0;;;;
2021/12/23 02:05:20;;;;;;;0;0;;;;;;;0;0;0;;;;
2021/12/23 02:06:21;;;;;;;0;0;;;;;;;0;0;0;;;;
2021/12/23 02:07:22;;;;;;;0;0;;;;;;;0;0;0;;;;
2021/12/23 02:08:22;;;;;;;0;0;;;;;;;0;0;0;;;;
2021/12/23 02:09:23;;;;;;;0;0;;;;;;;0;0;0;;;;
2021/12/23 02:10:24;;;;;;;0;0;;;;;;;0;0;0;;;;
2021/12/23 02:11:26;;;;;;;0;0;;;;;;;0;0;0;;;;
2021/12/23 02:12:26;;;;;;;0;0;;;;;;;0;0;0;;;;
2021/12/23 02:13:28;;;;;;;0;0;;;;;;;0;0;0;;;;
2021/12/23 02:14:29;;;;;;;0;0;;;;;;;0;0;0;;;;
2021/12/23 02:15:30;;;;;;;0;0;;;;;;;0;0;0;;;;
2021/12/23 02:16:30;;;;;;;0;0;;;;;;;0;0;0;;;;
2021/12/23 02:17:31;;;;;;;0;0;;;;;;;0;0;0;;;;
2021/12/23 02:18:36;;;;;;;0;0;;;;;;;0;0;0;;;;
2021/12/23 02:19:36;;;;;;;0;0;;;;;;;0;0;0;;;;
2021/12/23 02:20:37;;;;;;;0;0;;;;;;;0;0;0;;;;
2021/12/23 02:32:38;;;;;;;0;0;;;;;;;0;0;0;;;;
2021/12/23 02:33:39;;;;;;;0;0;;;;;;;0;0;0;;;;
2021/12/23 02:34:40;;;;;;;0;0;;;;;;;0;0;0;;;;
2021/12/23 02:35:40;;;;;;;0;0;;;;;;;0;0;0;;;;
2021/12/23 02:36:41;;;;;;;0;0;;;;;;;0;0;0;;;;
2021/12/23 02:37:41;;;;;;;0;0;;;;;;;0;0;0;;;;
2021/12/23 02:38:43;;;;;;;0;0;;;;;;;0;0;0;;;;
2021/12/23 02:39:43;;;;;;;0;0;;;;;;;0;0;0;;;;
2021/12/23 02:40:44;;;;;;;0;0;;;;;;;0;0;0;;;;
2021/12/23 02:41:45;;;;;;;0;0;;;;;;;0;0;0;;;;
2021/12/23 02:42:46;;;;;;;0;0;;;;;;;0;0;0;;;;
2021/12/23 02:43:46;;;;;;;0;0;;;;;;;0;0;0;;;;
2021/12/23 02:44:47;;;;;;;0;0;;;;;;;0;0;0;;;;
2021/12/23 02:45:47;;;;;;;0;0;;;;;;;0;0;0;;;;
2021/12/23 02:46:50;;;;;;;0;0;;;;;;;0;0;0;;;;
2021/12/23 02:47:51;;;;;;;0;0;;;;;;;0;0;0;;;;
2021/12/23 02:48:52;;;;;;;0;0;;;;;;;0;0;0;;;;
2021/12/23 02:49:52;;;;;;;0;0;;;;;;;0;0;0;;;;
2021/12/23 02:50:53;;;;;;;0;0;;;;;;;0;0;0;;;;
2021/12/23 02:51:55;;;;;;;0;0;;;;;;;0;0;0;;;;
2021/12/23 02:52:58;;;;;;;0;0;;;;;;;0;0;0;;;;
2021/12/23 02:53:59;;;;;;;0;0;;;;;;;0;0;0;;;;
2021/12/23 02:55:00;;;;;;;0;0;;;;;;;0;0;0;;;;
2021/12/23 02:56:00;;;;;;;0;0;;;;;;;0;0;0;;;;
2021/12/23 02:57:04;;;;;;;0;0;;;;;;;0;0;0;;;;
2021/12/23 02:58:05;;;;;;;0;0;;;;;;;0;0;0;;;;
2021/12/23 02:59:05;;;;;;;0;0;;;;;;;0;0;0;;;;
2021/12/23 03:00:06;;;;;;;0;0;;;;;;;0;0;0;;;;
2021/12/23 03:01:09;;;;;;;0;0;;;;;;;0;0;0;;;;
2021/12/23 03:02:10;;;;;;;0;0;;;;;;;0;0;0;;;;
2021/12/23 03:03:11;;;;;;;0;0;;;;;;;0;0;0;;;;
2021/12/23 03:04:11;;;;;;;0;0;;;;;;;0;0;0;;;;
2021/12/23 03:05:12;;;;;;;0;0;;;;;;;0;0;0;;;;
2021/12/23 03:06:12;;;;;;;0;0;;;;;;;0;0;0;;;;
2021/12/23 03:07:14;;;;;;;0;0;;;;;;;0;0;0;;;;
2021/12/23 03:08:15;;;;;;;0;0;;;;;;;0;0;0;;;;
2021/12/23 03:09:26;;;;;;;0;0;;;;;;;0;0;0;;;;
2021/12/23 03:10:26;;;;;;;0;0;;;;;;;0;0;0;;;;
2021/12/23 03:11:27;;;;;;;0;0;;;;;;;0;0;0;;;;
2021/12/23 03:12:29;;;;;;;0;0;;;;;;;0;0;0;;;;
2021/12/23 03:13:29;;;;;;;0;0;;;;;;;0;0;0;;;;
2021/12/23 03:14:30;;;;;;;0;0;;;;;;;0;0;0;;;;
2021/12/23 03:15:31;;;;;;;0;0;;;;;;;0;0;0;;;;
2021/12/23 03:16:32;;;;;;;0;0;;;;;;;0;0;0;;;;
2021/12/23 03:17:35;;;;;;;0;0;;;;;;;0;0;0;;;;
2021/12/23 03:18:35;;;;;;;0;0;;;;;;;0;0;0;;;;
2021/12/23 03:19:36;;;;;;;0;0;;;;;;;0;0;0;;;;
2021/12/23 03:20:36;;;;;;;0;0;;;;;;;0;0;0;;;;
2021/12/23 03:21:37;;;;;;;0;0;;;;;;;0;0;0;;;;
2021/12/23 03:22:37;;;;;;;0;0;;;;;;;0;0;0;;;;
2021/12/23 03:23:38;;;;;;;0;0;;;;;;;0;0;0;;;;
2021/12/23 03:24:39;;;;;;;0;0;;;;;;;0;0;0;;;;
2021/12/23 03:25:39;;;;;;;0;0;;;;;;;0;0;0;;;;
2021/12/23 03:26:40;;;;;;;0;0;;;;;;;0;0;0;;;;
2021/12/23 03:27:41;;;;;;;0;0;;;;;;;0;0;0;;;;
2021/12/23 03:28:41;;;;;;;0;0;;;;;;;0;0;0;;;;
2021/12/23 03:29:42;;;;;;;0;0;;;;;;;0;0;0;;;;
2021/12/23 03:30:42;;;;;;;0;0;;;;;;;0;0;0;;;;
2021/12/23 03:31:43;;;;;;;0;0;;;;;;;0;0;0;;;;
2021/12/23 03:32:44;;;;;;;0;0;;;;;;;0;0;0;;;;
2021/12/23 03:33:44;;;;;;;0;0;;;;;;;0;0;0;;;;
2021/12/23 03:34:45;;;;;;;0;0;;;;;;;0;0;0;;;;
2021/12/23 03:35:45;;;;;;;0;0;;;;;;;0;0;0;;;;
2021/12/23 03:36:46;;;;;;;0;0;;;;;;;0;0;0;;;;
2021/12/23 03:37:47;;;;;;;0;0;;;;;;;0;0;0;;;;
2021/12/23 03:38:47;;;;;;;0;0;;;;;;;0;0;0;;;;
2021/12/23 03:39:51;;;;;;;0;0;;;;;;;0;0;0;;;;
2021/12/23 03:40:51;;;;;;;0;0;;;;;;;0;0;0;;;;
2021/12/23 03:41:52;;;;;;;0;0;;;;;;;0;0;0;;;;
2021/12/23 03:42:53;;;;;;;0;0;;;;;;;0;0;0;;;;
2021/12/23 03:43:54;;;;;;;0;0;;;;;;;0;0;0;;;;
2021/12/23 03:44:54;;;;;;;0;0;;;;;;;0;0;0;;;;
2021/12/23 03:45:55;;;;;;;0;0;;;;;;;0;0;0;;;;
2021/12/23 03:46:57;;;;;;;0;0;;;;;;;0;0;0;;;;
2021/12/23 03:47:57;;;;;;;0;0;;;;;;;0;0;0;;;;
2021/12/23 03:48:58;;;;;;;0;0;;;;;;;0;0;0;;;;
2021/12/23 03:49:58;;;;;;;0;0;;;;;;;0;0;0;;;;
2021/12/23 03:50:59;;;;;;;0;0;;;;;;;0;0;0;;;;
2021/12/23 03:51:59;;;;;;;0;0;;;;;;;0;0;0;;;;
2021/12/23 03:53:01;;;;;;;0;0;;;;;;;0;0;0;;;;
2021/12/23 03:54:02;;;;;;;0;0;;;;;;;0;0;0;;;;
2021/12/23 03:55:03;;;;;;;0;0;;;;;;;0;0;0;;;;
2021/12/23 03:56:04;;;;;;;0;0;;;;;;;0;0;0;;;;
2021/12/23 03:57:05;;;;;;;0;0;;;;;;;0;0;0;;;;
2021/12/23 03:58:05;;;;;;;0;0;;;;;;;0;0;0;;;;
2021/12/23 03:59:06;;;;;;;0;0;;;;;;;0;0;0;;;;
2021/12/23 04:00:07;;;;;;;0;0;;;;;;;0;0;0;;;;
2021/12/23 04:01:12;;;;;;;0;0;;;;;;;0;0;0;;;;
2021/12/23 04:02:13;;;;;;;0;0;;;;;;;0;0;0;;;;
2021/12/23 04:03:14;;;;;;;0;0;;;;;;;0;0;0;;;;
2021/12/23 04:04:14;;;;;;;0;0;;;;;;;0;0;0;;;;
2021/12/23 04:05:15;;;;;;;0;0;;;;;;;0;0;0;;;;
2021/12/23 04:06:17;;;;;;;0;0;;;;;;;0;0;0;;;;
2021/12/23 04:07:19;;;;;;;0;0;;;;;;;0;0;0;;;;
2021/12/23 04:08:20;;;;;;;0;0;;;;;;;0;0;0;;;;
2021/12/23 04:09:20;;;;;;;0;0;;;;;;;0;0;0;;;;
2021/12/23 04:10:21;;;;;;;0;0;;;;;;;0;0;0;;;;
2021/12/23 04:11:22;;;;;;;0;0;;;;;;;0;0;0;;;;
2021/12/23 04:12:23;;;;;;;0;0;;;;;;;0;0;0;;;;
2021/12/23 04:13:24;;;;;;;0;0;;;;;;;0;0;0;;;;
2021/12/23 04:14:24;;;;;;;0;0;;;;;;;0;0;0;;;;
2021/12/23 04:15:25;;;;;;;0;0;;;;;;;0;0;0;;;;
2021/12/23 04:16:26;;;;;;;0;0;;;;;;;0;0;0;;;;
2021/12/23 04:17:27;;;;;;;0;0;;;;;;;0;0;0;;;;
2021/12/23 04:18:27;;;;;;;0;0;;;;;;;0;0;0;;;;
2021/12/23 04:19:31;;;;;;;0;0;;;;;;;0;0;0;;;;
2021/12/23 04:20:34;;;;;;;0;0;;;;;;;0;0;0;;;;
2021/12/23 04:21:36;;;;;;;0;0;;;;;;;0;0;0;;;;
2021/12/23 04:22:38;;;;;;;0;0;;;;;;;0;0;0;;;;
2021/12/23 04:23:39;;;;;;;0;0;;;;;;;0;0;0;;;;
2021/12/23 04:24:40;;;;;;;0;0;;;;;;;0;0;0;;;;
2021/12/23 04:25:40;;;;;;;0;0;;;;;;;0;0;0;;;;
2021/12/23 04:26:41;;;;;;;0;0;;;;;;;0;0;0;;;;
2021/12/23 04:27:41;;;;;;;0;0;;;;;;;0;0;0;;;;
2021/12/23 04:28:46;;;;;;;0;0;;;;;;;0;0;0;;;;
2021/12/23 04:29:46;;;;;;;0;0;;;;;;;0;0;0;;;;
2021/12/23 04:30:47;;;;;;;0;0;;;;;;;0;0;0;;;;
2021/12/23 04:31:49;;;;;;;0;0;;;;;;;0;0;0;;;;
2021/12/23 04:32:49;;;;;;;0;0;;;;;;;0;0;0;;;;
2021/12/23 04:33:50;;;;;;;0;0;;;;;;;0;0;0;;;;
2021/12/23 04:34:53;;;;;;;0;0;;;;;;;0;0;0;;;;
2021/12/23 04:35:54;;;;;;;0;0;;;;;;;0;0;0;;;;
2021/12/23 04:36:54;;;;;;;0;0;;;;;;;0;0;0;;;;
2021/12/23 04:37:55;;;;;;;0;0;;;;;;;0;0;0;;;;
2021/12/23 04:38:56;;;;;;;0;0;;;;;;;0;0;0;;;;
2021/12/23 04:39:57;;;;;;;0;0;;;;;;;0;0;0;;;;
2021/12/23 04:40:58;;;;;;;0;0;;;;;;;0;0;0;;;;
2021/12/23 04:41:58;;;;;;;0;0;;;;;;;0;0;0;;;;
2021/12/23 04:42:59;;;;;;;0;0;;;;;;;0;0;0;;;;
2021/12/23 04:43:59;;;;;;;0;0;;;;;;;0;0;0;;;;
2021/12/23 04:45:00;;;;;;;0;0;;;;;;;0;0;0;;;;
2021/12/23 04:46:00;;;;;;;0;0;;;;;;;0;0;0;;;;
2021/12/23 04:47:01;;;;;;;0;0;;;;;;;0;0;0;;;;
2021/12/23 04:48:02;;;;;;;0;0;;;;;;;0;0;0;;;;
2021/12/23 08:10:13;;;;;;;0;0;;;;;;;0;0;0;;;;
2021/12/23 08:11:14;;;;;;;0;0;;;;;;;0;0;0;;;;
2021/12/23 08:12:15;;;;;;;0;0;;;;;;;0;0;0;;;;
2021/12/23 08:13:15;;;;;;;0;0;;;;;;;0;0;0;;;;
2021/12/23 08:14:16;;;;;;;0;0;;;;;;;0;0;0;;;;
2021/12/23 08:15:17;;;;;;;0;0;;;;;;;0;0;0;;;;
2021/12/23 08:16:18;;;;;;;0;0;;;;;;;0;0;0;;;;
2021/12/23 08:17:19;;;;;;;0;0;;;;;;;0;0;0;;;;
2021/12/23 08:18:20;;;;;;;0;0;;;;;;;0;0;0;;;;
2021/12/23 08:19:20;;;;;;;0;0;;;;;;;0;0;0;;;;
2021/12/23 08:20:20;;;;;;;0;0;;;;;;;0;0;0;;;;
2021/12/23 08:21:22;;;;;;;0;0;;;;;;;0;0;0;;;;
2021/12/23 08:22:25;;;;;;;0;0;;;;;;;0;0;0;;;;
2021/12/23 08:23:26;;;;;;;0;0;;;;;;;0;0;0;;;;
2021/12/23 08:24:26;;;;;;;0;0;;;;;;;0;0;0;;;;
2021/12/23 08:25:27;;;;;;;0;0;;;;;;;0;0;0;;;;
2021/12/23 08:26:29;;;;;;;0;0;;;;;;;0;0;0;;;;
2021/12/23 08:27:31;;;;;;;0;0;;;;;;;0;0;0;;;;
2021/12/23 08:28:31;;;;;;;0;0;;;;;;;0;0;0;;;;
2021/12/23 08:29:32;;;;;;;0;0;;;;;;;0;0;0;;;;
2021/12/23 08:30:34;;;;;;;0;0;;;;;;;0;0;0;;;;
2021/12/23 08:31:34;;;;;;;0;0;;;;;;;0;0;0;;;;
2021/12/23 08:32:35;;;;;;;0;0;;;;;;;0;0;0;;;;
2021/12/23 08:33:37;;;;;;;0;0;;;;;;;0;0;0;;;;
2021/12/23 08:34:38;;;;;;;0;0;;;;;;;0;0;0;;;;
2021/12/23 08:35:38;;;;;;;0;0;;;;;;;0;0;0;;;;
2021/12/23 08:36:39;;;;;;;0;0;;;;;;;0;0;0;;;;
2021/12/23 08:37:39;;;;;;;0;0;;;;;;;0;0;0;;;;
2021/12/23 08:38:42;;;;;;;0;0;;;;;;;0;0;0;;;;
2021/12/23 08:39:43;;;;;;;0;0;;;;;;;0;0;0;;;;
2021/12/23 08:40:44;;;;;;;0;0;;;;;;;0;0;0;;;;
2021/12/23 08:41:45;;;;;;;0;0;;;;;;;0;0;0;;;;
2021/12/23 08:42:46;;;;;;;0;0;;;;;;;0;0;0;;;;
2021/12/23 08:43:48;;;;;;;0;0;;;;;;;0;0;0;;;;
2021/12/23 08:44:48;;;;;;;0;0;;;;;;;0;0;0;;;;
2021/12/23 08:45:49;;;;;;;0;0;;;;;;;0;0;0;;;;
2021/12/23 08:46:50;;;;;;;0;0;;;;;;;0;0;0;;;;
2021/12/23 08:47:50;;;;;;;0;0;;;;;;;0;0;0;;;;
2021/12/23 08:48:52;;;;;;;0;0;;;;;;;0;0;0;;;;
2021/12/23 08:49:52;;;;;;;0;0;;;;;;;0;0;0;;;;
2021/12/23 08:50:53;;;;;;;0;0;;;;;;;0;0;0;;;;
2021/12/23 08:51:54;;;;;;;0;0;;;;;;;0;0;0;;;;
2021/12/23 08:52:55;;;;;;;0;0;;;;;;;0;0;0;;;;
2021/12/23 08:53:56;;;;;;;0;0;;;;;;;0;0;0;;;;
2021/12/23 08:54:57;;;;;;;0;0;;;;;;;0;0;0;;;;
2021/12/23 08:55:57;;;;;;;0;0;;;;;;;0;0;0;;;;
2021/12/23 08:56:58;;;;;;;0;0;;;;;;;0;0;0;;;;
2021/12/23 08:57:59;;;;;;;0;0;;;;;;;0;0;0;;;;
2021/12/23 08:59:01;;;;;;;0;0;;;;;;;0;0;0;;;;
2021/12/23 09:00:02;;;;;;;0;0;;;;;;;0;0;0;;;;
2021/12/23 09:01:05;;;;;;;0;0;;;;;;;0;0;0;;;;
2021/12/23 09:02:06;;;;;;;0;0;;;;;;;0;0;0;;;;
2021/12/23 09:03:07;;;;;;;0;0;;;;;;;0;0;0;;;;
2021/12/23 09:04:09;;;;;;;0;0;;;;;;;0;0;0;;;;
2021/12/23 09:05:10;;;;;;;0;0;;;;;;;0;0;0;;;;
2021/12/23 09:06:11;;;;;;;0;0;;;;;;;0;0;0;;;;
2021/12/23 09:07:12;;;;;;;0;0;;;;;;;0;0;0;;;;
2021/12/23 09:08:13;;;;;;;0;0;;;;;;;0;0;0;;;;
2021/12/23 09:09:13;;;;;;;0;0;;;;;;;0;0;0;;;;
2021/12/23 09:10:14;;;;;;;0;0;;;;;;;0;0;0;;;;
2021/12/23 09:11:15;;;;;;;0;0;;;;;;;0;0;0;;;;
2021/12/23 09:12:16;;;;;;;0;0;;;;;;;0;0;0;;;;
2021/12/23 09:13:17;;;;;;;0;0;;;;;;;0;0;0;;;;
2021/12/23 09:14:17;;;;;;;0;0;;;;;;;0;0;0;;;;
2021/12/23 09:15:18;;;;;;;0;0;;;;;;;0;0;0;;;;
2021/12/23 09:16:20;;;;;;;0;0;;;;;;;0;0;0;;;;
2021/12/23 09:17:20;;;;;;;0;0;;;;;;;0;0;0;;;;
2021/12/23 09:18:21;;;;;;;0;0;;;;;;;0;0;0;;;;
2021/12/23 09:19:22;;;;;;;0;0;;;;;;;0;0;0;;;;
2021/12/23 09:20:23;;;;;;;0;0;;;;;;;0;0;0;;;;
2021/12/23 09:21:24;;;;;;;0;0;;;;;;;0;0;0;;;;
2021/12/23 09:22:24;;;;;;;0;0;;;;;;;0;0;0;;;;
2021/12/23 09:23:25;;;;;;;0;0;;;;;;;0;0;0;;;;
2021/12/23 09:24:26;;;;;;;0;0;;;;;;;0;0;0;;;;
2021/12/23 09:25:32;;;;;;;0;0;;;;;;;0;0;0;;;;
2021/12/23 09:26:40;;;;;;;0;0;;;;;;;0;0;0;;;;
2021/12/23 09:27:53;;;;;;;0;0;;;;;;;0;0;0;;;;
2021/12/23 09:29:00;;;;;;;0;0;;;;;;;0;0;0;;;;
2021/12/23 09:35:12;;;;;;;0;0;;;;;;;0;0;0;;;;
2021/12/23 09:36:12;;;;;;;0;0;;;;;;;0;0;0;;;;
2021/12/23 09:37:14;;;;;;;0;0;;;;;;;0;0;0;;;;
2021/12/23 09:38:15;;;;;;;0;0;;;;;;;0;0;0;;;;
2021/12/23 09:39:17;;;;;;;0;0;;;;;;;0;0;0;;;;
2021/12/23 09:40:17;;;;;;;0;0;;;;;;;0;0;0;;;;
2021/12/23 09:41:19;;;;;;;0;0;;;;;;;0;0;0;;;;
2021/12/23 09:42:21;;;;;;;13;7.9;;;;;;;0.3;86.99316;95181.92;;;;
2021/12/23 09:43:26;;;;;;;13;7.9;;;;;;;0.3;86.99316;95181.92;;;;
2021/12/23 09:44:28;;;;;;;13;7.9;;;;;;;0.3;86.99316;95181.92;;;;
2021/12/23 09:45:29;;;;;;;13;7.9;;;;;;;0.3;86.99316;95181.92;;;;
2021/12/23 09:46:34;;;;;;;13;7.9;;;;;;;0.3;86.99316;95181.92;;;;
2021/12/23 09:47:36;;;;;;;13;7.9;;;;;;;0.3;86.99316;95181.92;;;;
2021/12/23 09:48:36;;;;;;;13;7.9;;;;;;;0.3;86.99316;95181.92;;;;
2021/12/23 09:49:39;;;;;;;13;7.9;;;;;;;0.3;86.99316;95181.92;;;;
2021/12/23 09:50:39;;;;;;;13;7.9;;;;;;;0.3;86.99316;95181.92;;;;
2021/12/23 09:51:41;;;;;;;13;7.9;;;;;;;0.3;86.99316;95181.92;;;;
2021/12/23 09:52:42;;;;;;;14.4;7.9;;;;;;;1.28;86.52539;95170.31;;;;
2021/12/23 09:53:45;;;;;;;14.4;7.9;;;;;;;1.28;86.52539;95170.31;;;;
2021/12/23 09:54:52;;;;;;;14.4;7.9;;;;;;;1.28;86.52539;95170.31;;;;
2021/12/23 09:55:55;;;;;;;14.4;7.9;;;;;;;1.28;86.52539;95170.31;;;;
2021/12/23 09:56:56;;;;;;;14.4;7.9;;;;;;;1.28;86.52539;95170.31;;;;
2021/12/23 09:57:57;;;;;;;14.4;7.9;;;;;;;1.28;86.52539;95170.31;;;;
2021/12/23 09:59:01;;;;;;;14.4;7.9;;;;;;;1.28;86.52539;95170.31;;;;
2021/12/23 10:00:03;;;;;;;14.4;7.9;;;;;;;1.28;86.52539;95170.31;;;;
2021/12/23 10:01:06;;;;;;;14.4;7.9;;;;;;;1.28;86.52539;95170.31;;;;
2021/12/23 10:02:07;;;;;;;14.4;7.9;;;;;;;1.28;86.52539;95170.31;;;;
2021/12/23 10:03:09;;;;;;;14.4;7.9;;;;;;;1.28;86.52539;95170.31;;;;
2021/12/23 10:04:09;;;;;;;11.8;6.949999;;;;;;;3.09;83.45508;95140.19;;;;
2021/12/23 10:05:10;;;;;;;11.8;6.949999;;;;;;;3.09;83.45508;95140.19;;;;
2021/12/23 10:06:15;;;;;;;11.8;6.949999;;;;;;;3.09;83.45508;95140.19;;;;
2021/12/23 10:07:16;;;;;;;11.8;6.949999;;;;;;;3.09;83.45508;95140.19;;;;
2021/12/23 10:08:17;;;;;;;11.8;6.949999;;;;;;;3.09;83.45508;95140.19;;;;
2021/12/23 10:09:32;;;;;;;11.8;6.949999;;;;;;;3.09;83.45508;95140.19;;;;
2021/12/23 10:10:40;;;;;;;11.8;6.949999;;;;;;;3.09;83.45508;95140.19;;;;
2021/12/23 10:12:04;;;;;;;11.8;6.949999;;;;;;;3.09;83.45508;95140.19;;;;
2021/12/23 10:26:52;;;;;;;11.8;6.949999;;;;;;;3.09;83.45508;95140.19;;;;
2021/12/23 10:30:11;;;;;;;14.2;8.700001;;;;;;;5.06;81.6543;95120.26;;;;
2021/12/23 10:31:21;;;;;;;14.2;8.700001;;;;;;;5.06;81.6543;95120.26;;;;
2021/12/23 10:32:46;;;;;;;14.2;8.700001;;;;;;;5.06;81.6543;95120.26;;;;
2021/12/23 10:37:05;;;;;;;14.2;8.700001;;;;;;;5.06;81.6543;95120.26;;;;
2021/12/23 10:38:09;;;;;;;14.9;9.25;;;;;;;5.93;79.91797;95116.76;;;;
2021/12/23 10:39:14;;;;;;;14.9;9.25;;;;;;;5.93;79.91797;95116.76;;;;
2021/12/23 10:40:22;;;;;;;14.9;9.25;;;;;;;5.93;79.91797;95116.76;;;;
2021/12/23 10:41:22;;;;;;;14.9;9.25;;;;;;;5.93;79.91797;95116.76;;;;
2021/12/23 10:42:25;;;;;;;14.9;9.25;;;;;;;5.93;79.91797;95116.76;;;;
2021/12/23 10:43:27;;;;;;;14.9;9.25;;;;;;;5.93;79.91797;95116.76;;;;
2021/12/23 10:44:31;;;;;;;14.9;9.25;;;;;;;5.93;79.91797;95116.76;;;;
2021/12/23 10:45:31;;;;;;;14.9;9.25;;;;;;;5.93;79.91797;95116.76;;;;
2021/12/23 10:46:35;;;;;;;14.9;9.25;;;;;;;5.93;79.91797;95116.76;;;;
2021/12/23 10:47:44;;;;;;;14.9;9.25;;;;;;;5.93;79.91797;95116.76;;;;
2021/12/23 10:48:46;;;;;;;14.9;9.25;;;;;;;5.93;79.91797;95116.76;;;;
2021/12/23 10:49:58;;;;;;;14.9;9.25;;;;;;;5.93;79.91797;95116.76;;;;
2021/12/23 10:51:18;;;;;;;14.9;9.25;;;;;;;5.93;79.91797;95116.76;;;;
2021/12/23 10:52:25;;;;;;;14.9;9.25;;;;;;;5.93;79.91797;95116.76;;;;
2021/12/23 10:53:36;;;;;;;14.9;9.25;;;;;;;5.93;79.91797;95116.76;;;;
2021/12/23 11:00:10;;;;;;;7.650001;6.400001;;;;;;;9.39;74.14941;95056.31;;;;
2021/12/23 11:01:16;;;;;;;7.650001;6.400001;;;;;;;9.39;74.14941;95056.31;;;;
2021/12/23 11:02:20;;;;;;;7.650001;6.400001;;;;;;;9.39;74.14941;95056.31;;;;
2021/12/23 11:03:25;;;;;;;7.650001;6.400001;;;;;;;9.39;74.14941;95056.31;;;;
2021/12/23 11:04:29;;;;;;;7.650001;6.400001;;;;;;;9.39;74.14941;95056.31;;;;
2021/12/23 11:05:34;;;;;;;7.650001;6.400001;;;;;;;9.39;74.14941;95056.31;;;;
2021/12/23 11:06:42;;;;;;;7.650001;6.400001;;;;;;;9.39;74.14941;95056.31;;;;
2021/12/23 11:07:49;;;;;;;7.650001;6.400001;;;;;;;9.39;74.14941;95056.31;;;;
2021/12/23 11:08:58;;;;;;;7.650001;6.400001;;;;;;;9.39;74.14941;95056.31;;;;
2021/12/23 11:10:14;;;;;;;8.300001;6.3;;;;;;;8.9;75.41797;95034.24;;;;
2021/12/23 11:11:37;;;;;;;8.300001;6.3;;;;;;;8.9;75.41797;95034.24;;;;
2021/12/23 11:29:02;;;;;;;9.5;6.349999;;;;;;;8.77;76.97266;95002.56;;;;
2021/12/23 11:30:57;;;;;;;9.5;6.349999;;;;;;;8.77;76.97266;95002.56;;;;
2021/12/23 11:35:32;;;;;;;7.25;5.599999;;;;;;;10.37;74.8291;94988.71;;;;
2021/12/23 11:37:11;;;;;;;7.25;5.599999;;;;;;;10.37;74.8291;94988.71;;;;
2021/12/23 11:38:18;;;;;;;7.25;5.599999;;;;;;;10.37;74.8291;94988.71;;;;
2021/12/23 11:39:35;;;;;;;7.25;5.599999;;;;;;;10.37;74.8291;94988.71;;;;
2021/12/23 11:40:51;;;;;;;7.25;5.599999;;;;;;;10.37;74.8291;94988.71;;;;
2021/12/23 11:42:00;;;;;;;7.25;5.599999;;;;;;;10.37;74.8291;94988.71;;;;
2021/12/23 11:43:25;;;;;;;6.55;5.300001;;;;;;;9.8;75.96973;94981.62;;;;
2021/12/23 11:44:30;;;;;;;6.55;5.300001;;;;;;;9.8;75.96973;94981.62;;;;
2021/12/23 11:45:31;;;;;;;6.55;5.300001;;;;;;;9.8;75.96973;94981.62;;;;
2021/12/23 11:46:36;;;;;;;6.55;5.300001;;;;;;;9.8;75.96973;94981.62;;;;
2021/12/23 11:47:40;;;;;;;6.55;5.300001;;;;;;;9.8;75.96973;94981.62;;;;
2021/12/23 11:48:44;;;;;;;6.55;5.300001;;;;;;;9.8;75.96973;94981.62;;;;
2021/12/23 11:49:46;;;;;;;6.55;5.300001;;;;;;;9.8;75.96973;94981.62;;;;
2021/12/23 11:51:06;;;;;;;6.55;5.300001;;;;;;;9.8;75.96973;94981.62;;;;
2021/12/23 11:52:07;;;;;;;6.55;5.300001;;;;;;;9.8;75.96973;94981.62;;;;
2021/12/23 11:53:07;;;;;;;6.55;5.300001;;;;;;;9.8;75.96973;94981.62;;;;
2021/12/23 11:54:09;;;;;;;6;5.1;;;;;;;9;77.34473;94985.08;;;;
2021/12/23 11:55:12;;;;;;;6;5.1;;;;;;;9;77.34473;94985.08;;;;
2021/12/23 11:56:13;;;;;;;6;5.1;;;;;;;9;77.34473;94985.08;;;;
2021/12/23 11:57:16;;;;;;;6;5.1;;;;;;;9;77.34473;94985.08;;;;
2021/12/23 11:58:20;;;;;;;6;5.1;;;;;;;9;77.34473;94985.08;;;;
2021/12/23 11:59:22;;;;;;;6;5.1;;;;;;;9;77.34473;94985.08;;;;
2021/12/23 12:00:32;;;;;;;6;5.1;;;;;;;9;77.34473;94985.08;;;;
2021/12/23 12:01:34;;;;;;;6;5.1;;;;;;;9;77.34473;94985.08;;;;
2021/12/23 12:02:41;;;;;;;6;5.1;;;;;;;9;77.34473;94985.08;;;;
2021/12/23 12:03:43;;;;;;;6;5.1;;;;;;;9;77.34473;94985.08;;;;
2021/12/23 12:04:55;;;;;;;7.699998;5.400001;;;;;;;8.7;77.54688;94975.76;;;;
2021/12/23 12:05:59;;;;;;;7.699998;5.400001;;;;;;;8.7;77.54688;94975.76;;;;
2021/12/23 12:07:18;;;;;;;7.699998;5.400001;;;;;;;8.7;77.54688;94975.76;;;;
2021/12/23 12:08:21;;;;;;;7.699998;5.400001;;;;;;;8.7;77.54688;94975.76;;;;
2021/12/23 12:09:25;;;;;;;7.699998;5.400001;;;;;;;8.7;77.54688;94975.76;;;;
2021/12/23 12:10:28;;;;;;;7.699998;5.400001;;;;;;;8.7;77.54688;94975.76;;;;
2021/12/23 12:11:29;;;;;;;7.699998;5.400001;;;;;;;8.7;77.54688;94975.76;;;;
2021/12/23 12:12:29;;;;;;;7.699998;5.400001;;;;;;;8.7;77.54688;94975.76;;;;
2021/12/23 12:13:32;;;;;;;7.699998;5.400001;;;;;;;8.7;77.54688;94975.76;;;;
2021/12/23 12:14:33;;;;;;;7.699998;5.400001;;;;;;;8.7;77.54688;94975.76;;;;
2021/12/23 12:15:47;;;;;;;7.349999;6;;;;;;;8.41;77.56934;94965.03;;;;
2021/12/23 12:16:49;;;;;;;7.349999;6;;;;;;;8.41;77.56934;94965.03;;;;
2021/12/23 12:17:49;;;;;;;7.349999;6;;;;;;;8.41;77.56934;94965.03;;;;
2021/12/23 12:19:00;;;;;;;7.349999;6;;;;;;;8.41;77.56934;94965.03;;;;
2021/12/23 12:20:03;;;;;;;7.349999;6;;;;;;;8.41;77.56934;94965.03;;;;
2021/12/23 12:21:13;;;;;;;7.349999;6;;;;;;;8.41;77.56934;94965.03;;;;
2021/12/23 12:22:22;;;;;;;7.349999;6;;;;;;;8.41;77.56934;94965.03;;;;
2021/12/23 12:23:48;;;;;;;7.349999;6;;;;;;;8.41;77.56934;94965.03;;;;
2021/12/23 12:25:06;;;;;;;7.349999;6;;;;;;;8.41;77.56934;94965.03;;;;
2021/12/23 12:26:08;;;;;;;7.349999;6;;;;;;;8.41;77.56934;94965.03;;;;